sensor_id;sensor_type;location;lat;lon;timestamp;P1;durP1;ratioP1;P2;durP2;ratioP2
52268;SDS011;38224;50.950;4.100;2023-07-20T00:01:03;8.33;;;3.50;;
52268;SDS011;38224;50.950;4.100;2023-07-20T00:03:28;8.57;;;3.67;;
52268;SDS011;38224;50.950;4.100;2023-07-20T00:05:53;10.07;;;4.83;;
52268;SDS011;38224;50.950;4.100;2023-07-20T00:08:18;8.83;;;3.57;;
52268;SDS011;38224;50.950;4.100;2023-07-20T00:10:44;14.52;;;3.55;;
52268;SDS011;38224;50.950;4.100;2023-07-20T00:13:12;7.63;;;4.23;;
52268;SDS011;38224;50.950;4.100;2023-07-20T00:15:37;7.55;;;4.07;;
52268;SDS011;38224;50.950;4.100;2023-07-20T00:18:06;7.97;;;3.53;;
52268;SDS011;38224;50.950;4.100;2023-07-20T00:20:31;8.38;;;3.88;;
52268;SDS011;38224;50.950;4.100;2023-07-20T00:22:57;11.60;;;4.03;;
52268;SDS011;38224;50.950;4.100;2023-07-20T00:25:26;13.52;;;3.80;;
52268;SDS011;38224;50.950;4.100;2023-07-20T00:27:51;9.20;;;4.43;;
52268;SDS011;38224;50.950;4.100;2023-07-20T00:30:16;11.43;;;3.97;;
52268;SDS011;38224;50.950;4.100;2023-07-20T00:32:42;9.23;;;4.35;;
52268;SDS011;38224;50.950;4.100;2023-07-20T00:35:07;11.93;;;4.07;;
52268;SDS011;38224;50.950;4.100;2023-07-20T00:37:32;14.63;;;5.20;;
52268;SDS011;38224;50.950;4.100;2023-07-20T00:39:58;7.77;;;3.47;;
52268;SDS011;38224;50.950;4.100;2023-07-20T00:42:23;11.23;;;5.97;;
52268;SDS011;38224;50.950;4.100;2023-07-20T00:44:48;8.80;;;4.65;;
52268;SDS011;38224;50.950;4.100;2023-07-20T00:47:14;10.68;;;4.45;;
52268;SDS011;38224;50.950;4.100;2023-07-20T00:49:39;13.70;;;5.00;;
52268;SDS011;38224;50.950;4.100;2023-07-20T00:52:05;13.30;;;4.78;;
52268;SDS011;38224;50.950;4.100;2023-07-20T00:54:31;14.27;;;4.72;;
52268;SDS011;38224;50.950;4.100;2023-07-20T00:56:57;13.85;;;4.90;;
52268;SDS011;38224;50.950;4.100;2023-07-20T00:59:23;22.45;;;5.90;;
52268;SDS011;38224;50.950;4.100;2023-07-20T01:01:49;7.20;;;4.88;;
52268;SDS011;38224;50.950;4.100;2023-07-20T01:04:14;15.13;;;6.40;;
52268;SDS011;38224;50.950;4.100;2023-07-20T01:06:47;15.07;;;5.97;;
52268;SDS011;38224;50.950;4.100;2023-07-20T01:09:18;13.25;;;6.22;;
52268;SDS011;38224;50.950;4.100;2023-07-20T01:14:10;12.53;;;6.10;;
52268;SDS011;38224;50.950;4.100;2023-07-20T01:16:36;16.33;;;5.85;;
52268;SDS011;38224;50.950;4.100;2023-07-20T01:19:01;20.23;;;7.30;;
52268;SDS011;38224;50.950;4.100;2023-07-20T01:21:34;20.23;;;6.72;;
52268;SDS011;38224;50.950;4.100;2023-07-20T01:29:43;15.38;;;6.45;;
52268;SDS011;38224;50.950;4.100;2023-07-20T01:32:12;14.00;;;6.88;;
52268;SDS011;38224;50.950;4.100;2023-07-20T01:34:37;17.45;;;7.03;;
52268;SDS011;38224;50.950;4.100;2023-07-20T01:37:04;16.63;;;7.20;;
52268;SDS011;38224;50.950;4.100;2023-07-20T01:39:30;14.45;;;5.95;;
52268;SDS011;38224;50.950;4.100;2023-07-20T01:41:55;14.68;;;7.47;;
52268;SDS011;38224;50.950;4.100;2023-07-20T01:44:21;17.33;;;6.82;;
52268;SDS011;38224;50.950;4.100;2023-07-20T01:46:46;21.00;;;7.47;;
52268;SDS011;38224;50.950;4.100;2023-07-20T01:49:12;13.47;;;7.77;;
52268;SDS011;38224;50.950;4.100;2023-07-20T01:51:37;14.32;;;7.72;;
52268;SDS011;38224;50.950;4.100;2023-07-20T01:54:02;17.17;;;7.60;;
52268;SDS011;38224;50.950;4.100;2023-07-20T01:56:28;17.13;;;7.47;;
52268;SDS011;38224;50.950;4.100;2023-07-20T01:58:53;15.80;;;7.75;;
52268;SDS011;38224;50.950;4.100;2023-07-20T02:01:18;18.33;;;8.20;;
52268;SDS011;38224;50.950;4.100;2023-07-20T02:03:44;16.70;;;9.00;;
52268;SDS011;38224;50.950;4.100;2023-07-20T02:06:09;18.93;;;8.17;;
52268;SDS011;38224;50.950;4.100;2023-07-20T02:08:34;16.55;;;9.02;;
52268;SDS011;38224;50.950;4.100;2023-07-20T02:10:59;15.47;;;8.77;;
52268;SDS011;38224;50.950;4.100;2023-07-20T02:13:25;23.42;;;10.02;;
52268;SDS011;38224;50.950;4.100;2023-07-20T02:15:50;21.63;;;9.37;;
52268;SDS011;38224;50.950;4.100;2023-07-20T02:18:16;24.00;;;9.57;;
52268;SDS011;38224;50.950;4.100;2023-07-20T02:20:41;18.70;;;9.35;;
52268;SDS011;38224;50.950;4.100;2023-07-20T02:23:07;26.35;;;9.65;;
52268;SDS011;38224;50.950;4.100;2023-07-20T02:25:32;17.80;;;9.43;;
52268;SDS011;38224;50.950;4.100;2023-07-20T02:27:57;17.80;;;9.90;;
52268;SDS011;38224;50.950;4.100;2023-07-20T02:30:23;17.55;;;10.23;;
52268;SDS011;38224;50.950;4.100;2023-07-20T02:32:48;18.33;;;10.67;;
52268;SDS011;38224;50.950;4.100;2023-07-20T02:35:16;20.67;;;10.00;;
52268;SDS011;38224;50.950;4.100;2023-07-20T02:37:42;22.73;;;11.23;;
52268;SDS011;38224;50.950;4.100;2023-07-20T02:40:07;22.40;;;10.05;;
52268;SDS011;38224;50.950;4.100;2023-07-20T02:42:33;19.25;;;9.90;;
52268;SDS011;38224;50.950;4.100;2023-07-20T02:44:58;20.77;;;9.35;;
52268;SDS011;38224;50.950;4.100;2023-07-20T02:47:23;17.65;;;9.57;;
52268;SDS011;38224;50.950;4.100;2023-07-20T02:49:48;20.50;;;10.80;;
52268;SDS011;38224;50.950;4.100;2023-07-20T02:52:14;21.88;;;11.00;;
52268;SDS011;38224;50.950;4.100;2023-07-20T02:54:39;19.92;;;10.65;;
52268;SDS011;38224;50.950;4.100;2023-07-20T02:57:04;26.85;;;10.38;;
52268;SDS011;38224;50.950;4.100;2023-07-20T02:59:30;19.38;;;10.60;;
52268;SDS011;38224;50.950;4.100;2023-07-20T03:01:55;20.67;;;9.70;;
52268;SDS011;38224;50.950;4.100;2023-07-20T03:04:20;19.70;;;11.10;;
52268;SDS011;38224;50.950;4.100;2023-07-20T03:06:46;24.52;;;11.43;;
52268;SDS011;38224;50.950;4.100;2023-07-20T03:09:11;17.45;;;10.07;;
52268;SDS011;38224;50.950;4.100;2023-07-20T03:11:37;22.13;;;11.02;;
52268;SDS011;38224;50.950;4.100;2023-07-20T03:14:02;22.45;;;10.52;;
52268;SDS011;38224;50.950;4.100;2023-07-20T03:16:27;20.13;;;10.57;;
52268;SDS011;38224;50.950;4.100;2023-07-20T03:18:53;19.55;;;11.05;;
52268;SDS011;38224;50.950;4.100;2023-07-20T03:21:18;20.63;;;10.77;;
52268;SDS011;38224;50.950;4.100;2023-07-20T03:23:43;19.50;;;10.77;;
52268;SDS011;38224;50.950;4.100;2023-07-20T03:26:09;19.58;;;11.52;;
52268;SDS011;38224;50.950;4.100;2023-07-20T03:28:38;20.13;;;10.60;;
52268;SDS011;38224;50.950;4.100;2023-07-20T03:31:04;22.55;;;10.30;;
52268;SDS011;38224;50.950;4.100;2023-07-20T03:33:29;23.98;;;11.13;;
52268;SDS011;38224;50.950;4.100;2023-07-20T03:35:55;24.27;;;10.52;;
52268;SDS011;38224;50.950;4.100;2023-07-20T03:38:21;28.30;;;11.30;;
52268;SDS011;38224;50.950;4.100;2023-07-20T03:40:53;20.73;;;10.88;;
52268;SDS011;38224;50.950;4.100;2023-07-20T03:43:19;28.23;;;11.63;;
52268;SDS011;38224;50.950;4.100;2023-07-20T03:45:44;22.15;;;10.73;;
52268;SDS011;38224;50.950;4.100;2023-07-20T03:48:16;23.85;;;11.60;;
52268;SDS011;38224;50.950;4.100;2023-07-20T03:50:41;19.25;;;11.48;;
52268;SDS011;38224;50.950;4.100;2023-07-20T03:53:07;22.23;;;11.13;;
52268;SDS011;38224;50.950;4.100;2023-07-20T03:55:32;18.37;;;11.20;;
52268;SDS011;38224;50.950;4.100;2023-07-20T03:57:57;20.83;;;11.43;;
52268;SDS011;38224;50.950;4.100;2023-07-20T04:00:23;20.27;;;11.00;;
52268;SDS011;38224;50.950;4.100;2023-07-20T04:02:48;19.77;;;10.43;;
52268;SDS011;38224;50.950;4.100;2023-07-20T04:05:14;19.35;;;11.55;;
52268;SDS011;38224;50.950;4.100;2023-07-20T04:07:39;15.73;;;10.17;;
52268;SDS011;38224;50.950;4.100;2023-07-20T04:10:04;20.73;;;11.25;;
52268;SDS011;38224;50.950;4.100;2023-07-20T04:12:30;21.60;;;12.25;;
52268;SDS011;38224;50.950;4.100;2023-07-20T04:14:55;21.83;;;10.43;;
52268;SDS011;38224;50.950;4.100;2023-07-20T04:17:20;18.10;;;10.77;;
52268;SDS011;38224;50.950;4.100;2023-07-20T04:19:45;18.10;;;11.37;;
52268;SDS011;38224;50.950;4.100;2023-07-20T04:22:11;16.83;;;10.80;;
52268;SDS011;38224;50.950;4.100;2023-07-20T04:24:36;21.60;;;11.55;;
52268;SDS011;38224;50.950;4.100;2023-07-20T04:27:01;24.07;;;11.43;;
52268;SDS011;38224;50.950;4.100;2023-07-20T04:29:26;19.77;;;10.47;;
52268;SDS011;38224;50.950;4.100;2023-07-20T04:31:52;21.90;;;10.40;;
52268;SDS011;38224;50.950;4.100;2023-07-20T04:34:17;20.47;;;10.30;;
52268;SDS011;38224;50.950;4.100;2023-07-20T04:36:42;17.63;;;9.98;;
52268;SDS011;38224;50.950;4.100;2023-07-20T04:39:09;22.25;;;10.32;;
52268;SDS011;38224;50.950;4.100;2023-07-20T04:41:34;19.08;;;11.52;;
52268;SDS011;38224;50.950;4.100;2023-07-20T04:44:00;20.50;;;10.93;;
52268;SDS011;38224;50.950;4.100;2023-07-20T04:46:25;15.17;;;10.40;;
52268;SDS011;38224;50.950;4.100;2023-07-20T04:48:50;20.10;;;10.80;;
52268;SDS011;38224;50.950;4.100;2023-07-20T04:51:15;17.27;;;9.73;;
52268;SDS011;38224;50.950;4.100;2023-07-20T04:53:42;22.95;;;11.40;;
52268;SDS011;38224;50.950;4.100;2023-07-20T04:56:08;25.53;;;10.70;;
52268;SDS011;38224;50.950;4.100;2023-07-20T04:58:33;19.20;;;9.95;;
52268;SDS011;38224;50.950;4.100;2023-07-20T05:00:58;17.90;;;10.33;;
52268;SDS011;38224;50.950;4.100;2023-07-20T05:03:23;15.73;;;10.73;;
52268;SDS011;38224;50.950;4.100;2023-07-20T05:05:49;26.27;;;11.80;;
52268;SDS011;38224;50.950;4.100;2023-07-20T05:08:14;20.67;;;12.52;;
52268;SDS011;38224;50.950;4.100;2023-07-20T05:10:39;17.38;;;10.77;;
52268;SDS011;38224;50.950;4.100;2023-07-20T05:13:05;15.23;;;10.95;;
52268;SDS011;38224;50.950;4.100;2023-07-20T05:15:32;19.83;;;10.67;;
52268;SDS011;38224;50.950;4.100;2023-07-20T05:17:57;14.80;;;10.52;;
52268;SDS011;38224;50.950;4.100;2023-07-20T05:20:23;18.33;;;11.23;;
52268;SDS011;38224;50.950;4.100;2023-07-20T05:22:48;17.70;;;10.20;;
52268;SDS011;38224;50.950;4.100;2023-07-20T05:25:13;19.20;;;10.85;;
52268;SDS011;38224;50.950;4.100;2023-07-20T05:27:39;19.50;;;10.57;;
52268;SDS011;38224;50.950;4.100;2023-07-20T05:30:05;22.25;;;10.65;;
52268;SDS011;38224;50.950;4.100;2023-07-20T05:32:32;17.27;;;10.60;;
52268;SDS011;38224;50.950;4.100;2023-07-20T05:34:57;16.45;;;10.38;;
52268;SDS011;38224;50.950;4.100;2023-07-20T05:37:22;19.30;;;10.40;;
52268;SDS011;38224;50.950;4.100;2023-07-20T05:39:47;21.90;;;11.20;;
52268;SDS011;38224;50.950;4.100;2023-07-20T05:42:13;20.52;;;11.32;;
52268;SDS011;38224;50.950;4.100;2023-07-20T05:44:39;19.52;;;11.10;;
52268;SDS011;38224;50.950;4.100;2023-07-20T05:47:04;17.23;;;11.00;;
52268;SDS011;38224;50.950;4.100;2023-07-20T05:49:30;20.70;;;9.93;;
52268;SDS011;38224;50.950;4.100;2023-07-20T05:51:55;17.47;;;11.00;;
52268;SDS011;38224;50.950;4.100;2023-07-20T05:54:21;15.50;;;10.82;;
52268;SDS011;38224;50.950;4.100;2023-07-20T05:56:46;23.98;;;11.82;;
52268;SDS011;38224;50.950;4.100;2023-07-20T05:59:12;23.42;;;11.85;;
52268;SDS011;38224;50.950;4.100;2023-07-20T06:01:37;14.43;;;10.77;;
52268;SDS011;38224;50.950;4.100;2023-07-20T06:04:02;17.50;;;9.93;;
52268;SDS011;38224;50.950;4.100;2023-07-20T06:06:28;18.92;;;9.73;;
52268;SDS011;38224;50.950;4.100;2023-07-20T06:08:53;19.67;;;10.23;;
52268;SDS011;38224;50.950;4.100;2023-07-20T06:11:19;15.60;;;9.80;;
52268;SDS011;38224;50.950;4.100;2023-07-20T06:13:45;14.10;;;9.38;;
52268;SDS011;38224;50.950;4.100;2023-07-20T06:16:10;21.02;;;9.90;;
52268;SDS011;38224;50.950;4.100;2023-07-20T06:18:35;12.52;;;8.68;;
52268;SDS011;38224;50.950;4.100;2023-07-20T06:21:01;23.77;;;8.93;;
52268;SDS011;38224;50.950;4.100;2023-07-20T06:23:26;16.30;;;9.50;;
52268;SDS011;38224;50.950;4.100;2023-07-20T06:25:51;10.90;;;7.57;;
52268;SDS011;38224;50.950;4.100;2023-07-20T06:28:16;12.93;;;7.15;;
52268;SDS011;38224;50.950;4.100;2023-07-20T06:30:43;11.10;;;6.68;;
52268;SDS011;38224;50.950;4.100;2023-07-20T06:33:08;12.13;;;6.22;;
52268;SDS011;38224;50.950;4.100;2023-07-20T06:35:34;19.42;;;6.57;;
52268;SDS011;38224;50.950;4.100;2023-07-20T06:37:59;12.52;;;6.05;;
52268;SDS011;38224;50.950;4.100;2023-07-20T06:40:25;9.52;;;5.97;;
52268;SDS011;38224;50.950;4.100;2023-07-20T06:42:50;12.40;;;5.13;;
52268;SDS011;38224;50.950;4.100;2023-07-20T06:45:15;6.00;;;4.17;;
52268;SDS011;38224;50.950;4.100;2023-07-20T06:47:41;7.68;;;4.40;;
52268;SDS011;38224;50.950;4.100;2023-07-20T06:50:06;6.65;;;4.30;;
52268;SDS011;38224;50.950;4.100;2023-07-20T06:52:32;7.20;;;3.90;;
52268;SDS011;38224;50.950;4.100;2023-07-20T06:54:57;4.38;;;3.33;;
52268;SDS011;38224;50.950;4.100;2023-07-20T06:57:22;7.90;;;3.73;;
52268;SDS011;38224;50.950;4.100;2023-07-20T06:59:48;6.80;;;4.97;;
52268;SDS011;38224;50.950;4.100;2023-07-20T07:02:13;6.47;;;3.83;;
52268;SDS011;38224;50.950;4.100;2023-07-20T07:04:39;6.53;;;4.28;;
52268;SDS011;38224;50.950;4.100;2023-07-20T07:07:04;5.60;;;3.97;;
52268;SDS011;38224;50.950;4.100;2023-07-20T07:09:29;6.13;;;3.67;;
52268;SDS011;38224;50.950;4.100;2023-07-20T07:11:55;5.83;;;3.10;;
52268;SDS011;38224;50.950;4.100;2023-07-20T07:14:20;2.95;;;2.50;;
52268;SDS011;38224;50.950;4.100;2023-07-20T07:16:45;4.70;;;2.45;;
52268;SDS011;38224;50.950;4.100;2023-07-20T07:19:11;3.47;;;2.70;;
52268;SDS011;38224;50.950;4.100;2023-07-20T07:21:36;3.20;;;2.77;;
52268;SDS011;38224;50.950;4.100;2023-07-20T07:24:01;3.35;;;2.20;;
52268;SDS011;38224;50.950;4.100;2023-07-20T07:26:26;5.50;;;1.95;;
52268;SDS011;38224;50.950;4.100;2023-07-20T07:28:52;3.53;;;2.20;;
52268;SDS011;38224;50.950;4.100;2023-07-20T07:31:17;5.10;;;2.47;;
52268;SDS011;38224;50.950;4.100;2023-07-20T07:33:42;3.65;;;2.17;;
52268;SDS011;38224;50.950;4.100;2023-07-20T07:36:07;2.20;;;1.63;;
52268;SDS011;38224;50.950;4.100;2023-07-20T07:38:33;4.05;;;2.20;;
52268;SDS011;38224;50.950;4.100;2023-07-20T07:40:58;6.43;;;2.03;;
52268;SDS011;38224;50.950;4.100;2023-07-20T07:43:24;5.45;;;2.08;;
52268;SDS011;38224;50.950;4.100;2023-07-20T07:45:49;3.10;;;1.80;;
52268;SDS011;38224;50.950;4.100;2023-07-20T07:48:14;2.47;;;1.50;;
52268;SDS011;38224;50.950;4.100;2023-07-20T07:50:40;2.73;;;1.50;;
52268;SDS011;38224;50.950;4.100;2023-07-20T07:53:05;2.43;;;1.60;;
52268;SDS011;38224;50.950;4.100;2023-07-20T07:55:30;2.83;;;1.52;;
52268;SDS011;38224;50.950;4.100;2023-07-20T07:57:56;1.80;;;1.43;;
52268;SDS011;38224;50.950;4.100;2023-07-20T08:00:21;5.28;;;1.67;;
52268;SDS011;38224;50.950;4.100;2023-07-20T08:02:46;1.75;;;1.20;;
52268;SDS011;38224;50.950;4.100;2023-07-20T08:05:13;2.42;;;1.48;;
52268;SDS011;38224;50.950;4.100;2023-07-20T08:07:38;2.63;;;1.70;;
52268;SDS011;38224;50.950;4.100;2023-07-20T08:10:04;2.97;;;1.70;;
52268;SDS011;38224;50.950;4.100;2023-07-20T08:12:30;4.30;;;1.75;;
52268;SDS011;38224;50.950;4.100;2023-07-20T08:14:55;3.00;;;1.80;;
52268;SDS011;38224;50.950;4.100;2023-07-20T08:17:20;2.65;;;1.60;;
52268;SDS011;38224;50.950;4.100;2023-07-20T08:19:46;2.80;;;1.30;;
52268;SDS011;38224;50.950;4.100;2023-07-20T08:22:11;2.75;;;1.45;;
52268;SDS011;38224;50.950;4.100;2023-07-20T08:24:40;3.00;;;1.60;;
52268;SDS011;38224;50.950;4.100;2023-07-20T08:27:06;5.10;;;1.40;;
52268;SDS011;38224;50.950;4.100;2023-07-20T08:29:31;2.08;;;1.48;;
52268;SDS011;38224;50.950;4.100;2023-07-20T08:31:57;2.70;;;1.23;;
52268;SDS011;38224;50.950;4.100;2023-07-20T08:34:22;2.80;;;1.33;;
52268;SDS011;38224;50.950;4.100;2023-07-20T08:36:47;2.23;;;0.90;;
52268;SDS011;38224;50.950;4.100;2023-07-20T08:39:12;1.83;;;0.80;;
52268;SDS011;38224;50.950;4.100;2023-07-20T08:41:37;1.33;;;0.90;;
52268;SDS011;38224;50.950;4.100;2023-07-20T08:44:04;1.92;;;1.10;;
52268;SDS011;38224;50.950;4.100;2023-07-20T08:46:30;1.30;;;1.10;;
52268;SDS011;38224;50.950;4.100;2023-07-20T08:48:56;3.83;;;1.20;;
52268;SDS011;38224;50.950;4.100;2023-07-20T08:51:21;2.53;;;0.95;;
52268;SDS011;38224;50.950;4.100;2023-07-20T08:53:48;3.65;;;0.98;;
52268;SDS011;38224;50.950;4.100;2023-07-20T08:56:15;1.52;;;1.00;;
52268;SDS011;38224;50.950;4.100;2023-07-20T08:58:41;2.25;;;0.90;;
52268;SDS011;38224;50.950;4.100;2023-07-20T09:01:08;1.60;;;1.00;;
52268;SDS011;38224;50.950;4.100;2023-07-20T09:03:33;2.97;;;1.10;;
52268;SDS011;38224;50.950;4.100;2023-07-20T09:05:59;1.13;;;0.70;;
52268;SDS011;38224;50.950;4.100;2023-07-20T09:08:25;1.40;;;0.90;;
52268;SDS011;38224;50.950;4.100;2023-07-20T09:10:50;10.57;;;1.10;;
52268;SDS011;38224;50.950;4.100;2023-07-20T09:13:15;2.03;;;0.90;;
52268;SDS011;38224;50.950;4.100;2023-07-20T09:15:45;8.30;;;1.45;;
52268;SDS011;38224;50.950;4.100;2023-07-20T09:18:10;3.55;;;1.00;;
52268;SDS011;38224;50.950;4.100;2023-07-20T09:20:36;1.70;;;0.77;;
52268;SDS011;38224;50.950;4.100;2023-07-20T09:23:04;1.53;;;0.90;;
52268;SDS011;38224;50.950;4.100;2023-07-20T09:25:29;1.52;;;0.95;;
52268;SDS011;38224;50.950;4.100;2023-07-20T09:27:55;2.08;;;1.00;;
52268;SDS011;38224;50.950;4.100;2023-07-20T09:30:21;1.88;;;0.70;;
52268;SDS011;38224;50.950;4.100;2023-07-20T09:32:49;1.33;;;0.80;;
52268;SDS011;38224;50.950;4.100;2023-07-20T09:35:19;1.30;;;0.73;;
52268;SDS011;38224;50.950;4.100;2023-07-20T09:37:48;2.17;;;1.20;;
52268;SDS011;38224;50.950;4.100;2023-07-20T09:42:42;2.33;;;1.02;;
52268;SDS011;38224;50.950;4.100;2023-07-20T09:45:08;2.22;;;0.80;;
52268;SDS011;38224;50.950;4.100;2023-07-20T09:47:34;2.25;;;0.82;;
52268;SDS011;38224;50.950;4.100;2023-07-20T09:50:00;2.85;;;0.90;;
52268;SDS011;38224;50.950;4.100;2023-07-20T09:52:26;1.80;;;0.70;;
52268;SDS011;38224;50.950;4.100;2023-07-20T09:54:51;1.63;;;0.80;;
52268;SDS011;38224;50.950;4.100;2023-07-20T09:57:16;3.92;;;0.77;;
52268;SDS011;38224;50.950;4.100;2023-07-20T09:59:42;3.83;;;0.98;;
52268;SDS011;38224;50.950;4.100;2023-07-20T10:02:10;2.90;;;0.97;;
52268;SDS011;38224;50.950;4.100;2023-07-20T10:04:36;2.33;;;0.90;;
52268;SDS011;38224;50.950;4.100;2023-07-20T10:07:02;2.90;;;0.90;;
52268;SDS011;38224;50.950;4.100;2023-07-20T10:09:30;0.85;;;0.70;;
52268;SDS011;38224;50.950;4.100;2023-07-20T10:11:57;1.45;;;0.90;;
52268;SDS011;38224;50.950;4.100;2023-07-20T10:14:23;1.38;;;0.77;;
52268;SDS011;38224;50.950;4.100;2023-07-20T10:16:50;1.67;;;0.70;;
52268;SDS011;38224;50.950;4.100;2023-07-20T10:19:25;2.17;;;0.90;;
52268;SDS011;38224;50.950;4.100;2023-07-20T10:21:56;3.05;;;0.90;;
52268;SDS011;38224;50.950;4.100;2023-07-20T10:24:22;1.92;;;1.00;;
52268;SDS011;38224;50.950;4.100;2023-07-20T10:26:47;2.42;;;1.23;;
52268;SDS011;38224;50.950;4.100;2023-07-20T10:29:13;3.33;;;1.08;;
52268;SDS011;38224;50.950;4.100;2023-07-20T10:31:38;2.05;;;1.10;;
52268;SDS011;38224;50.950;4.100;2023-07-20T10:34:04;2.83;;;1.05;;
52268;SDS011;38224;50.950;4.100;2023-07-20T10:36:29;3.17;;;1.23;;
52268;SDS011;38224;50.950;4.100;2023-07-20T10:38:58;4.20;;;1.77;;
52268;SDS011;38224;50.950;4.100;2023-07-20T10:41:34;3.55;;;0.90;;
52268;SDS011;38224;50.950;4.100;2023-07-20T10:44:03;2.38;;;1.00;;
52268;SDS011;38224;50.950;4.100;2023-07-20T10:49:03;2.30;;;0.90;;
52268;SDS011;38224;50.950;4.100;2023-07-20T10:51:29;1.77;;;1.10;;
52268;SDS011;38224;50.950;4.100;2023-07-20T10:53:55;1.15;;;1.00;;
52268;SDS011;38224;50.950;4.100;2023-07-20T10:56:23;2.25;;;1.02;;
52268;SDS011;38224;50.950;4.100;2023-07-20T10:58:51;6.13;;;1.23;;
52268;SDS011;38224;50.950;4.100;2023-07-20T11:01:20;2.22;;;1.23;;
52268;SDS011;38224;50.950;4.100;2023-07-20T11:03:49;3.13;;;0.97;;
52268;SDS011;38224;50.950;4.100;2023-07-20T11:11:21;1.33;;;1.00;;
52268;SDS011;38224;50.950;4.100;2023-07-20T11:13:57;3.28;;;1.23;;
52268;SDS011;38224;50.950;4.100;2023-07-20T11:16:36;1.38;;;0.90;;
52268;SDS011;38224;50.950;4.100;2023-07-20T11:19:03;2.05;;;0.88;;
52268;SDS011;38224;50.950;4.100;2023-07-20T11:21:28;1.27;;;1.00;;
52268;SDS011;38224;50.950;4.100;2023-07-20T11:23:55;2.63;;;1.10;;
52268;SDS011;38224;50.950;4.100;2023-07-20T11:26:20;5.85;;;1.30;;
52268;SDS011;38224;50.950;4.100;2023-07-20T11:28:51;1.80;;;1.30;;
52268;SDS011;38224;50.950;4.100;2023-07-20T11:31:20;1.42;;;1.05;;
52268;SDS011;38224;50.950;4.100;2023-07-20T11:33:45;1.38;;;1.00;;
52268;SDS011;38224;50.950;4.100;2023-07-20T11:36:11;1.98;;;1.10;;
52268;SDS011;38224;50.950;4.100;2023-07-20T11:38:36;2.30;;;0.93;;
52268;SDS011;38224;50.950;4.100;2023-07-20T11:41:04;3.67;;;1.07;;
52268;SDS011;38224;50.950;4.100;2023-07-20T11:43:30;3.78;;;1.17;;
52268;SDS011;38224;50.950;4.100;2023-07-20T11:45:55;3.53;;;1.25;;
52268;SDS011;38224;50.950;4.100;2023-07-20T11:48:20;4.78;;;1.27;;
52268;SDS011;38224;50.950;4.100;2023-07-20T11:50:46;2.35;;;1.05;;
52268;SDS011;38224;50.950;4.100;2023-07-20T11:53:15;2.30;;;1.10;;
52268;SDS011;38224;50.950;4.100;2023-07-20T11:55:41;7.75;;;1.20;;
52268;SDS011;38224;50.950;4.100;2023-07-20T11:58:06;2.90;;;1.33;;
52268;SDS011;38224;50.950;4.100;2023-07-20T12:00:38;2.00;;;1.20;;
52268;SDS011;38224;50.950;4.100;2023-07-20T12:03:05;4.25;;;1.42;;
52268;SDS011;38224;50.950;4.100;2023-07-20T12:05:31;3.00;;;1.35;;
52268;SDS011;38224;50.950;4.100;2023-07-20T12:07:58;5.28;;;1.30;;
52268;SDS011;38224;50.950;4.100;2023-07-20T12:10:24;2.03;;;1.20;;
52268;SDS011;38224;50.950;4.100;2023-07-20T12:12:49;2.05;;;1.10;;
52268;SDS011;38224;50.950;4.100;2023-07-20T12:17:46;1.88;;;1.08;;
52268;SDS011;38224;50.950;4.100;2023-07-20T12:20:23;1.58;;;1.00;;
52268;SDS011;38224;50.950;4.100;2023-07-20T12:22:49;2.50;;;1.17;;
52268;SDS011;38224;50.950;4.100;2023-07-20T12:25:14;1.53;;;1.20;;
52268;SDS011;38224;50.950;4.100;2023-07-20T12:27:40;1.60;;;1.05;;
52268;SDS011;38224;50.950;4.100;2023-07-20T12:30:07;2.35;;;1.20;;
52268;SDS011;38224;50.950;4.100;2023-07-20T12:32:32;2.80;;;1.10;;
52268;SDS011;38224;50.950;4.100;2023-07-20T12:34:58;1.92;;;1.10;;
52268;SDS011;38224;50.950;4.100;2023-07-20T12:37:25;1.65;;;1.17;;
52268;SDS011;38224;50.950;4.100;2023-07-20T12:39:51;2.08;;;1.00;;
52268;SDS011;38224;50.950;4.100;2023-07-20T12:42:16;5.93;;;1.10;;
52268;SDS011;38224;50.950;4.100;2023-07-20T12:44:42;3.35;;;1.80;;
52268;SDS011;38224;50.950;4.100;2023-07-20T12:47:07;3.50;;;1.37;;
52268;SDS011;38224;50.950;4.100;2023-07-20T12:49:32;2.03;;;1.40;;
52268;SDS011;38224;50.950;4.100;2023-07-20T12:51:58;2.53;;;1.40;;
52268;SDS011;38224;50.950;4.100;2023-07-20T12:54:23;2.00;;;1.58;;
52268;SDS011;38224;50.950;4.100;2023-07-20T12:56:48;3.95;;;1.52;;
52268;SDS011;38224;50.950;4.100;2023-07-20T12:59:14;1.88;;;1.23;;
52268;SDS011;38224;50.950;4.100;2023-07-20T13:01:39;1.70;;;1.37;;
52268;SDS011;38224;50.950;4.100;2023-07-20T13:04:06;2.15;;;1.88;;
52268;SDS011;38224;50.950;4.100;2023-07-20T13:06:34;1.95;;;1.40;;
52268;SDS011;38224;50.950;4.100;2023-07-20T13:08:59;1.98;;;1.63;;
52268;SDS011;38224;50.950;4.100;2023-07-20T13:11:25;2.90;;;1.70;;
52268;SDS011;38224;50.950;4.100;2023-07-20T13:13:50;5.85;;;2.38;;
52268;SDS011;38224;50.950;4.100;2023-07-20T13:16:15;3.22;;;1.83;;
52268;SDS011;38224;50.950;4.100;2023-07-20T13:18:41;2.95;;;2.47;;
52268;SDS011;38224;50.950;4.100;2023-07-20T13:21:06;2.33;;;2.10;;
52268;SDS011;38224;50.950;4.100;2023-07-20T13:23:36;3.85;;;2.45;;
52268;SDS011;38224;50.950;4.100;2023-07-20T13:26:02;5.80;;;2.35;;
52268;SDS011;38224;50.950;4.100;2023-07-20T13:28:27;2.22;;;1.75;;
52268;SDS011;38224;50.950;4.100;2023-07-20T13:30:52;2.63;;;1.90;;
52268;SDS011;38224;50.950;4.100;2023-07-20T13:33:17;3.47;;;1.63;;
52268;SDS011;38224;50.950;4.100;2023-07-20T13:35:43;4.63;;;1.42;;
52268;SDS011;38224;50.950;4.100;2023-07-20T13:38:08;1.80;;;1.17;;
52268;SDS011;38224;50.950;4.100;2023-07-20T13:40:34;2.85;;;1.52;;
52268;SDS011;38224;50.950;4.100;2023-07-20T13:43:00;3.85;;;1.70;;
52268;SDS011;38224;50.950;4.100;2023-07-20T13:45:25;3.08;;;1.25;;
52268;SDS011;38224;50.950;4.100;2023-07-20T13:47:51;2.42;;;1.20;;
52268;SDS011;38224;50.950;4.100;2023-07-20T13:50:16;1.75;;;1.10;;
52268;SDS011;38224;50.950;4.100;2023-07-20T13:52:41;1.47;;;0.90;;
52268;SDS011;38224;50.950;4.100;2023-07-20T13:55:07;2.27;;;1.10;;
52268;SDS011;38224;50.950;4.100;2023-07-20T13:57:32;2.10;;;1.10;;
52268;SDS011;38224;50.950;4.100;2023-07-20T13:59:57;3.93;;;1.30;;
52268;SDS011;38224;50.950;4.100;2023-07-20T14:02:25;1.83;;;1.00;;
52268;SDS011;38224;50.950;4.100;2023-07-20T14:04:50;2.40;;;1.02;;
52268;SDS011;38224;50.950;4.100;2023-07-20T14:07:15;2.28;;;1.05;;
52268;SDS011;38224;50.950;4.100;2023-07-20T14:09:40;3.90;;;1.00;;
52268;SDS011;38224;50.950;4.100;2023-07-20T14:12:06;2.03;;;1.00;;
52268;SDS011;38224;50.950;4.100;2023-07-20T14:14:31;2.92;;;1.02;;
52268;SDS011;38224;50.950;4.100;2023-07-20T14:16:57;1.20;;;0.80;;
52268;SDS011;38224;50.950;4.100;2023-07-20T14:19:22;1.27;;;0.87;;
52268;SDS011;38224;50.950;4.100;2023-07-20T14:21:48;2.67;;;1.15;;
52268;SDS011;38224;50.950;4.100;2023-07-20T14:24:13;2.00;;;0.80;;
52268;SDS011;38224;50.950;4.100;2023-07-20T14:26:38;2.63;;;1.10;;
52268;SDS011;38224;50.950;4.100;2023-07-20T14:29:03;2.87;;;1.00;;
52268;SDS011;38224;50.950;4.100;2023-07-20T14:31:29;1.33;;;1.00;;
52268;SDS011;38224;50.950;4.100;2023-07-20T14:33:54;2.20;;;1.17;;
52268;SDS011;38224;50.950;4.100;2023-07-20T14:36:19;2.43;;;1.33;;
52268;SDS011;38224;50.950;4.100;2023-07-20T14:38:45;1.65;;;0.98;;
52268;SDS011;38224;50.950;4.100;2023-07-20T14:41:11;1.92;;;1.10;;
52268;SDS011;38224;50.950;4.100;2023-07-20T14:43:37;1.27;;;1.00;;
52268;SDS011;38224;50.950;4.100;2023-07-20T14:46:03;1.60;;;0.82;;
52268;SDS011;38224;50.950;4.100;2023-07-20T14:48:28;1.65;;;0.93;;
52268;SDS011;38224;50.950;4.100;2023-07-20T14:50:54;5.77;;;1.30;;